Terminal Aerodrome Forecast
Issued by NWS Wilmington, OH

Current Version | Previous Version | Text Only | Print | Product List | Glossary Off
Versions: 1 2 3 4 5 6 7 8 9 10 11 12 13 14 15 16 17 18 19 20 21 22 23

000
FTUS41 KILN 280541
TAFDAY
TAF
KDAY 280541Z 2806/2906 05008KT 3SM -SHRA BR BKN015 OVC022
     FM280700 05008KT 6SM BR VCSH BKN040 OVC080
     FM280900 04006KT 4SM BR OVC007
     FM281600 03005KT P6SM OVC015
     FM281800 02007KT P6SM VCSH OVC022
     FM282300 36006KT P6SM BKN025
     FM290300 36005KT P6SM OVC007=

USA.gov is the U.S. government's official web portal to all federal, state and local government web resources and services.